Time;durP1;ratioP1;P1;durP2;ratioP2;P2;SDS_P1;SDS_P2;PMS_P1;PMS_P2;Temp;Humidity;BMP_temperature;BMP_pressure;BME280_temperature;BME280_humidity;BME280_pressure;Samples;Min_cycle;Max_cycle;Signal;HPM_P1;HPM_P2
2023/04/05 00:01:25;;;;;;;13.43;7.40;;;;;;;0.98;96.24;102483.72;4958565;28;20125;-93
2023/04/05 00:03:58;;;;;;;16.27;7.57;;;;;;;0.94;96.50;102479.31;4958278;28;20034;-93
2023/04/05 00:06:25;;;;;;;15.20;7.10;;;;;;;0.86;94.70;102473.00;4973210;28;20129;-92
2023/04/05 00:09:02;;;;;;;16.00;7.53;;;;;;;0.84;96.22;102482.28;4954976;28;20061;-92
2023/04/05 00:11:31;;;;;;;16.17;7.90;;;;;;;0.76;96.02;102484.50;4973226;28;20163;-92
2023/04/05 00:14:01;;;;;;;13.13;7.07;;;;;;;0.68;96.98;102479.06;4957807;28;20034;-92
2023/04/05 00:16:27;;;;;;;15.52;7.70;;;;;;;0.70;94.96;102480.00;4958593;28;20082;-92
2023/04/05 00:18:53;;;;;;;14.40;7.03;;;;;;;0.67;96.01;102484.13;4974693;28;20471;-92
2023/04/05 00:21:23;;;;;;;15.82;7.65;;;;;;;0.59;97.61;102467.63;4973588;28;20039;-92
2023/04/05 00:23:50;;;;;;;13.57;7.18;;;;;;;0.54;97.32;102464.88;4972966;28;20034;-93
2023/04/05 00:26:16;;;;;;;15.10;7.57;;;;;;;0.53;95.72;102480.09;4957470;28;20045;-92
2023/04/05 00:28:42;;;;;;;17.45;7.90;;;;;;;0.51;96.38;102476.59;4958609;28;20530;-92
2023/04/05 00:31:08;;;;;;;18.02;7.57;;;;;;;0.45;96.53;102469.56;4957877;28;20039;-92
2023/04/05 00:33:34;;;;;;;15.07;7.10;;;;;;;0.48;97.49;102477.34;4958644;28;20300;-93
2023/04/05 00:36:13;;;;;;;14.60;7.20;;;;;;;0.39;98.58;102459.09;4956637;28;20679;-93
2023/04/05 00:38:40;;;;;;;14.48;7.32;;;;;;;0.46;98.24;102475.53;4958357;28;20086;-92
2023/04/05 00:41:06;;;;;;;15.82;7.13;;;;;;;0.42;97.21;102474.53;4972135;28;20456;-92
2023/04/05 00:43:32;;;;;;;14.90;7.28;;;;;;;0.32;97.65;102463.06;4957891;28;20526;-92
2023/04/05 00:45:57;;;;;;;15.55;7.68;;;;;;;0.34;97.76;102478.44;4972792;28;20081;-92
2023/04/05 00:48:24;;;;;;;14.20;6.85;;;;;;;0.25;96.92;102462.72;4958162;28;20035;-93
2023/04/05 00:50:50;;;;;;;15.98;7.68;;;;;;;0.25;98.27;102465.28;4961857;28;20034;-93
2023/04/05 00:53:20;;;;;;;14.32;7.28;;;;;;;0.27;98.49;102466.22;4958394;28;20039;-92
2023/04/05 00:55:46;;;;;;;15.95;7.40;;;;;;;0.22;98.94;102465.13;4957154;28;20027;-92
2023/04/05 00:58:12;;;;;;;15.40;7.85;;;;;;;0.19;99.67;102459.91;4957665;28;20034;-92
2023/04/05 01:00:38;;;;;;;14.50;7.18;;;;;;;0.21;99.94;102471.03;4957278;28;20415;-93
2023/04/05 01:03:06;;;;;;;14.43;7.50;;;;;;;0.17;99.56;102474.25;4957905;28;20057;-92
2023/04/05 01:05:45;;;;;;;16.30;7.90;;;;;;;0.15;100.00;102480.97;4956447;28;20035;-93
2023/04/05 01:08:17;;;;;;;15.57;7.72;;;;;;;0.02;98.64;102456.59;4963550;28;20104;-91
2023/04/05 01:10:50;;;;;;;18.02;7.80;;;;;;;0.10;99.09;102467.13;4976716;28;20041;-92
2023/04/05 01:13:16;;;;;;;17.63;7.82;;;;;;;0.02;97.59;102458.25;4979479;28;20080;-91
2023/04/05 01:15:42;;;;;;;16.02;7.82;;;;;;;-0.01;97.21;102448.81;4963203;28;20033;-92
2023/04/05 01:18:10;;;;;;;15.73;7.35;;;;;;;0.03;96.41;102457.47;4980353;28;20044;-92
2023/04/05 01:20:41;;;;;;;16.15;7.43;;;;;;;0.03;98.21;102463.44;4980129;28;20029;-92
2023/04/05 01:23:29;;;;;;;15.63;8.05;;;;;;;0.00;100.00;102469.25;4978980;28;20042;-92
2023/04/05 01:26:14;;;;;;;16.90;8.05;;;;;;;-0.03;98.47;102461.50;4978946;28;20465;-92
2023/04/05 01:28:57;;;;;;;16.00;8.05;;;;;;;-0.06;97.34;102461.34;4978649;28;20035;-93
2023/04/05 01:31:31;;;;;;;16.30;7.67;;;;;;;-0.07;98.79;102459.59;4978757;28;20037;-92
2023/04/05 01:34:03;;;;;;;15.75;7.80;;;;;;;-0.11;97.86;102457.72;4981305;28;20682;-92
2023/04/05 01:37:01;;;;;;;17.50;8.13;;;;;;;-0.21;99.89;102435.19;4978809;28;20558;-92
2023/04/05 01:39:28;;;;;;;13.68;7.32;;;;;;;-0.22;99.21;102442.75;4978796;28;20490;-93
2023/04/05 01:42:00;;;;;;;16.05;7.63;;;;;;;-0.22;100.00;102445.31;4980541;28;20026;-92
2023/04/05 01:44:27;;;;;;;16.05;7.68;;;;;;;-0.24;100.00;102440.13;4979353;28;20661;-92
2023/04/05 01:46:52;;;;;;;17.92;8.07;;;;;;;-0.28;100.00;102439.94;4978266;28;20030;-93
2023/04/05 01:49:18;;;;;;;19.08;8.00;;;;;;;-0.41;100.00;102418.97;4979530;28;20369;-92
2023/04/05 01:51:43;;;;;;;17.15;7.65;;;;;;;-0.39;100.00;102426.69;4968256;28;20867;-92
2023/04/05 01:54:08;;;;;;;16.42;7.70;;;;;;;-0.43;100.00;102429.91;4980981;28;20026;-93
2023/04/05 01:56:34;;;;;;;14.45;7.68;;;;;;;-0.37;100.00;102436.94;4980230;28;20058;-91
2023/04/05 01:59:00;;;;;;;18.42;7.93;;;;;;;-0.41;100.00;102438.50;4980226;28;20049;-93
2023/04/05 02:01:25;;;;;;;20.45;7.88;;;;;;;-0.53;100.00;102428.59;4979125;28;20038;-92
2023/04/05 02:03:54;;;;;;;14.82;7.32;;;;;;;-0.53;100.00;102425.16;4980253;28;20038;-92
2023/04/05 02:06:19;;;;;;;16.67;7.97;;;;;;;-0.50;100.00;102435.50;4979896;28;20033;-93
2023/04/05 02:08:45;;;;;;;17.38;8.32;;;;;;;-0.52;100.00;102432.00;4979647;28;20046;-92
2023/04/05 02:11:10;;;;;;;14.25;7.47;;;;;;;-0.55;100.00;102429.34;4980079;28;20026;-92
2023/04/05 02:13:36;;;;;;;15.70;8.27;;;;;;;-0.61;100.00;102419.72;4980054;28;20054;-92
2023/04/05 02:16:01;;;;;;;18.80;8.35;;;;;;;-0.59;100.00;102423.22;4980264;28;20503;-91
2023/04/05 02:18:30;;;;;;;15.90;8.13;;;;;;;-0.59;100.00;102425.75;4980238;28;21018;-93
2023/04/05 02:21:06;;;;;;;14.80;7.25;;;;;;;-0.63;100.00;102416.25;4968082;28;20086;-92
2023/04/05 02:23:33;;;;;;;17.48;7.35;;;;;;;-0.68;100.00;102412.59;4966815;28;20026;-92
2023/04/05 02:25:59;;;;;;;16.08;7.85;;;;;;;-0.72;100.00;102412.38;4965059;28;20026;-92
2023/04/05 02:28:25;;;;;;;18.17;7.68;;;;;;;-0.74;100.00;102411.44;4979816;28;21551;-92
2023/04/05 02:30:50;;;;;;;17.08;8.13;;;;;;;-0.87;100.00;102398.13;4978299;28;20506;-92
2023/04/05 02:33:16;;;;;;;13.93;7.60;;;;;;;-0.74;100.00;102426.69;4977944;28;20526;-92
2023/04/05 02:35:41;;;;;;;16.45;7.78;;;;;;;-0.80;100.00;102415.44;4960505;28;20049;-92
2023/04/05 02:38:08;;;;;;;17.00;8.07;;;;;;;-0.89;100.00;102412.44;4993823;28;20033;-93
2023/04/05 02:40:34;;;;;;;16.10;8.18;;;;;;;-0.84;100.00;102415.22;4978462;28;20049;-92
2023/04/05 02:42:59;;;;;;;16.75;7.68;;;;;;;-0.82;100.00;102423.81;4978996;28;20060;-93
2023/04/05 02:45:26;;;;;;;17.63;8.02;;;;;;;-0.94;100.00;102406.28;4977904;28;20030;-93
2023/04/05 02:47:52;;;;;;;16.40;7.63;;;;;;;-0.95;100.00;102398.56;4980300;28;20030;-92
2023/04/05 02:50:19;;;;;;;17.27;7.93;;;;;;;-1.04;100.00;102393.91;4978178;28;20045;-93
2023/04/05 02:52:46;;;;;;;17.77;8.13;;;;;;;-0.98;100.00;102409.47;4978593;28;20034;-93
2023/04/05 02:55:12;;;;;;;18.25;8.40;;;;;;;-0.93;100.00;102413.09;4977128;28;20062;-93
2023/04/05 02:57:38;;;;;;;18.65;8.70;;;;;;;-0.97;100.00;102402.72;4978433;28;20084;-93
2023/04/05 03:00:06;;;;;;;17.35;8.35;;;;;;;-1.01;100.00;102396.59;4977252;28;20033;-91
2023/04/05 03:02:31;;;;;;;18.00;8.27;;;;;;;-0.97;100.00;102397.63;4977984;28;20037;-92
2023/04/05 03:04:57;;;;;;;17.35;8.27;;;;;;;-0.98;100.00;102408.59;4979146;28;20026;-92
2023/04/05 03:07:24;;;;;;;15.15;7.45;;;;;;;-1.02;100.00;102397.38;4977699;28;20526;-93
2023/04/05 03:09:50;;;;;;;15.68;7.70;;;;;;;-1.03;100.00;102400.75;4992993;28;20112;-92
2023/04/05 03:12:15;;;;;;;19.83;8.38;;;;;;;-1.08;100.00;102392.00;4977994;28;20088;-92
2023/04/05 03:14:41;;;;;;;14.55;7.50;;;;;;;-1.13;100.00;102388.38;4978098;28;20080;-92
2023/04/05 03:17:06;;;;;;;16.33;8.52;;;;;;;-1.13;100.00;102388.38;4994363;28;20038;-92
2023/04/05 03:19:32;;;;;;;16.90;8.00;;;;;;;-1.18;100.00;102386.41;4965097;28;20478;-91
2023/04/05 03:21:57;;;;;;;17.38;7.95;;;;;;;-1.13;100.00;102388.38;4979126;28;20030;-92
2023/04/05 03:24:23;;;;;;;17.13;7.65;;;;;;;-1.28;100.00;102365.59;4977282;28;20022;-92
2023/04/05 03:26:48;;;;;;;17.40;8.50;;;;;;;-1.21;100.00;102379.50;4978123;28;20725;-92
2023/04/05 03:29:15;;;;;;;17.83;8.30;;;;;;;-1.18;100.00;102384.75;4978466;28;20058;-91
2023/04/05 03:31:41;;;;;;;15.73;8.48;;;;;;;-1.27;100.00;102371.56;4979887;28;20080;-92
2023/04/05 03:34:06;;;;;;;18.58;7.80;;;;;;;-1.26;100.00;102383.50;4966414;28;20446;-92
2023/04/05 03:36:40;;;;;;;18.02;8.30;;;;;;;-1.33;100.00;102367.06;4978704;28;20069;-92
2023/04/05 03:39:07;;;;;;;17.40;8.38;;;;;;;-1.25;100.00;102390.34;4978039;28;20199;-92
2023/04/05 03:41:33;;;;;;;15.95;8.13;;;;;;;-1.30;100.00;102379.06;4966172;28;20045;-92
2023/04/05 03:43:58;;;;;;;16.52;8.18;;;;;;;-1.23;100.00;102386.19;4977468;28;20026;-91
2023/04/05 03:46:24;;;;;;;17.33;8.15;;;;;;;-1.21;100.00;102382.03;4992855;28;20030;-92
2023/04/05 03:48:49;;;;;;;17.27;8.35;;;;;;;-1.21;100.00;102387.13;4964001;28;21997;-92
2023/04/05 03:51:15;;;;;;;17.42;8.25;;;;;;;-1.22;100.00;102386.25;4977913;28;20085;-92
2023/04/05 03:53:44;;;;;;;17.95;7.93;;;;;;;-1.32;100.00;102366.28;4990477;28;20109;-91
2023/04/05 03:56:10;;;;;;;17.13;8.30;;;;;;;-1.31;100.00;102367.16;4978904;28;20105;-92
2023/04/05 03:58:36;;;;;;;17.15;8.65;;;;;;;-1.29;100.00;102376.56;4964359;28;20081;-91
2023/04/05 04:01:02;;;;;;;16.67;8.43;;;;;;;-1.36;100.00;102353.31;4976499;28;20113;-93
2023/04/05 04:03:27;;;;;;;20.50;9.07;;;;;;;-1.27;100.00;102369.91;4974881;28;20088;-92
2023/04/05 04:05:54;;;;;;;20.85;8.98;;;;;;;-1.28;100.00;102375.78;4977523;28;20479;-92
2023/04/05 04:08:20;;;;;;;22.90;8.77;;;;;;;-1.32;100.00;102365.41;4976008;28;20046;-92
2023/04/05 04:10:45;;;;;;;18.65;8.55;;;;;;;-1.32;100.00;102368.81;4960936;28;20022;-92
2023/04/05 04:13:11;;;;;;;15.73;8.32;;;;;;;-1.35;100.00;102373.75;4977601;28;20034;-92
2023/04/05 04:15:36;;;;;;;18.40;8.88;;;;;;;-1.41;100.00;102360.72;4958826;28;20037;-92
2023/04/05 04:18:02;;;;;;;18.23;8.63;;;;;;;-1.39;100.00;102369.31;4977262;28;20038;-92
2023/04/05 04:20:27;;;;;;;18.30;8.75;;;;;;;-1.44;100.00;102357.19;4977414;28;20279;-92
2023/04/05 04:22:53;;;;;;;20.63;9.10;;;;;;;-1.39;100.00;102370.97;4965393;28;20026;-92
2023/04/05 04:25:19;;;;;;;21.00;9.02;;;;;;;-1.54;100.00;102345.66;4978751;28;20037;-92
2023/04/05 04:27:45;;;;;;;20.65;8.82;;;;;;;-1.46;100.00;102362.19;4978476;28;20030;-92
2023/04/05 04:30:14;;;;;;;18.10;8.70;;;;;;;-1.56;100.00;102352.34;4976825;28;20031;-92
2023/04/05 04:32:56;;;;;;;20.75;9.07;;;;;;;-1.55;100.00;102349.00;4977447;28;20961;-91
2023/04/05 04:35:24;;;;;;;19.40;9.18;;;;;;;-1.56;100.00;102357.41;4976685;28;20031;-91
2023/04/05 04:37:56;;;;;;;20.27;8.70;;;;;;;-1.57;100.00;102353.16;4974889;28;20569;-92
2023/04/05 04:40:31;;;;;;;20.33;9.25;;;;;;;-1.57;100.00;102365.88;4975637;28;20054;-91
2023/04/05 04:42:57;;;;;;;21.52;9.10;;;;;;;-1.65;100.00;102356.97;4975642;28;20077;-91
2023/04/05 04:45:23;;;;;;;17.70;8.68;;;;;;;-1.60;100.00;102366.56;4992165;28;20034;-92
2023/04/05 04:47:52;;;;;;;17.95;8.75;;;;;;;-1.69;100.00;102358.47;4977428;28;20373;-92
2023/04/05 04:50:18;;;;;;;18.48;9.10;;;;;;;-1.66;100.00;102360.31;4996316;28;20502;-92
2023/04/05 04:52:44;;;;;;;17.77;8.68;;;;;;;-1.79;100.00;102347.78;4980976;28;20242;-92
2023/04/05 04:55:13;;;;;;;16.40;8.88;;;;;;;-1.73;100.00;102359.13;4980870;28;20061;-92
2023/04/05 04:57:40;;;;;;;16.67;8.70;;;;;;;-1.75;100.00;102358.19;4978439;28;20061;-91
2023/04/05 05:00:11;;;;;;;19.73;8.80;;;;;;;-1.68;100.00;102367.84;4978853;28;20077;-92
2023/04/05 05:02:37;;;;;;;18.27;8.23;;;;;;;-1.70;100.00;102369.44;4981835;28;20034;-92
2023/04/05 05:05:10;;;;;;;18.20;8.60;;;;;;;-1.81;100.00;102342.63;4980964;28;20038;-92
2023/04/05 05:07:37;;;;;;;18.00;8.65;;;;;;;-1.69;100.00;102365.22;4980220;28;20213;-92
2023/04/05 05:10:03;;;;;;;18.30;8.75;;;;;;;-1.70;100.00;102358.41;4980777;28;20034;-91
2023/04/05 05:12:31;;;;;;;17.88;9.10;;;;;;;-1.65;100.00;102364.63;4980163;28;20414;-92
2023/04/05 05:14:57;;;;;;;19.52;8.73;;;;;;;-1.64;100.00;102361.28;4980005;28;20030;-91
2023/04/05 05:17:22;;;;;;;17.67;8.30;;;;;;;-1.64;100.00;102356.19;4976496;28;20033;-91
2023/04/05 05:19:48;;;;;;;16.63;7.78;;;;;;;-1.66;100.00;102351.03;4980439;28;20065;-91
2023/04/05 05:22:14;;;;;;;18.92;8.60;;;;;;;-1.66;100.00;102350.16;4981728;28;20117;-92
2023/04/05 05:24:39;;;;;;;18.13;8.52;;;;;;;-1.51;100.00;102368.72;4961682;28;20520;-91
2023/04/05 05:27:05;;;;;;;19.95;8.63;;;;;;;-1.50;100.00;102367.88;4980364;28;20609;-91
2023/04/05 05:29:31;;;;;;;20.90;9.10;;;;;;;-1.45;100.00;102368.13;4979726;28;20042;-92
2023/04/05 05:31:57;;;;;;;19.40;9.15;;;;;;;-1.40;100.00;102359.94;4980260;28;20033;-90
2023/04/05 05:34:23;;;;;;;19.10;9.32;;;;;;;-1.34;100.00;102361.91;4980370;28;20042;-91
2023/04/05 05:36:48;;;;;;;17.23;9.02;;;;;;;-1.29;100.00;102357.91;4969769;28;20123;-91
2023/04/05 05:39:14;;;;;;;19.17;9.32;;;;;;;-1.22;100.00;102357.41;4979200;28;20105;-91
2023/04/05 05:41:43;;;;;;;20.40;9.02;;;;;;;-1.16;100.00;102341.59;4978361;28;20154;-91
2023/04/05 05:44:09;;;;;;;18.85;9.10;;;;;;;-0.95;100.00;102351.06;4977457;28;20034;-92
2023/04/05 05:46:37;;;;;;;22.52;10.05;;;;;;;-0.85;100.00;102347.31;4965400;28;20368;-91
2023/04/05 05:49:03;;;;;;;20.25;9.27;;;;;;;-0.77;100.00;102346.00;4976228;28;20227;-91
2023/04/05 05:51:28;;;;;;;23.17;9.82;;;;;;;-0.67;100.00;102350.69;4977048;28;20030;-91
2023/04/05 05:53:54;;;;;;;22.85;9.20;;;;;;;-0.56;100.00;102344.44;4972969;28;20030;-91
2023/04/05 05:56:20;;;;;;;20.55;9.18;;;;;;;-0.44;100.00;102352.63;4978072;28;20505;-92
2023/04/05 05:58:45;;;;;;;20.63;10.45;;;;;;;-0.37;100.00;102351.22;4964023;28;20046;-91
2023/04/05 06:01:10;;;;;;;19.13;9.77;;;;;;;-0.36;100.00;102350.41;4976002;28;20402;-91
2023/04/05 06:03:36;;;;;;;22.73;9.60;;;;;;;-0.32;100.00;102356.50;4978103;28;20040;-91
2023/04/05 06:06:04;;;;;;;20.42;9.23;;;;;;;-0.31;100.00;102346.41;4966048;28;20027;-91
2023/04/05 06:08:30;;;;;;;19.88;9.63;;;;;;;-0.24;100.00;102350.09;4961951;28;20050;-91
2023/04/05 06:10:56;;;;;;;19.80;9.32;;;;;;;-0.14;100.00;102354.81;4979612;28;20033;-91
2023/04/05 06:13:22;;;;;;;22.02;10.27;;;;;;;0.01;100.00;102360.53;4979867;28;20037;-92
2023/04/05 06:15:47;;;;;;;20.90;10.20;;;;;;;0.31;100.00;102346.56;4978081;28;20414;-91
2023/04/05 06:18:13;;;;;;;24.95;11.75;;;;;;;0.50;100.00;102342.22;4980223;28;20030;-91
2023/04/05 06:20:43;;;;;;;21.92;11.90;;;;;;;0.74;100.00;102359.41;4979467;28;20558;-91
2023/04/05 06:23:09;;;;;;;27.98;12.52;;;;;;;0.84;100.00;102359.75;4979559;28;20038;-91
2023/04/05 06:25:35;;;;;;;23.13;11.60;;;;;;;0.89;100.00;102346.38;4978390;28;20030;-91
2023/04/05 06:28:05;;;;;;;27.20;12.30;;;;;;;1.02;99.38;102352.84;4976778;28;20100;-92
2023/04/05 06:30:32;;;;;;;28.15;12.25;;;;;;;1.22;99.37;102353.63;4974590;28;20096;-91
2023/04/05 06:32:58;;;;;;;23.52;12.00;;;;;;;1.41;99.32;102346.72;4976655;28;20030;-91
2023/04/05 06:35:23;;;;;;;23.67;12.45;;;;;;;1.68;96.92;102346.00;4977310;28;20041;-91
2023/04/05 06:37:50;;;;;;;26.15;12.90;;;;;;;2.55;100.00;102347.34;4976543;28;20026;-92
2023/04/05 06:40:16;;;;;;;21.33;12.27;;;;;;;3.92;95.77;102360.09;4979069;28;20019;-92
2023/04/05 06:42:41;;;;;;;22.85;11.65;;;;;;;4.25;91.12;102352.44;4976641;28;20384;-92
2023/04/05 06:45:08;;;;;;;21.10;12.13;;;;;;;4.01;90.52;102346.66;4977544;28;20491;-92
2023/04/05 06:47:37;;;;;;;21.25;11.88;;;;;;;4.00;91.86;102345.78;4978233;28;20066;-91
2023/04/05 06:50:05;;;;;;;25.40;12.65;;;;;;;4.24;89.39;102348.13;4978830;28;20068;-91
2023/04/05 06:52:31;;;;;;;25.10;12.77;;;;;;;4.41;89.17;102335.75;4977909;28;20030;-93
2023/04/05 06:54:57;;;;;;;23.98;12.73;;;;;;;4.75;87.82;102343.44;4978853;28;20029;-91
2023/04/05 06:57:22;;;;;;;23.95;11.93;;;;;;;5.14;88.90;102335.78;4977142;28;20031;-92
2023/04/05 06:59:48;;;;;;;20.83;11.98;;;;;;;5.69;84.98;102340.41;4972402;28;20561;-89
2023/04/05 07:02:13;;;;;;;23.17;12.15;;;;;;;6.11;86.35;102342.13;4974915;28;20455;-88
2023/04/05 07:04:40;;;;;;;20.35;11.88;;;;;;;6.40;81.66;102343.53;4974773;28;20034;-88
2023/04/05 07:07:05;;;;;;;23.13;12.13;;;;;;;6.48;76.03;102344.53;4977639;28;20033;-89
2023/04/05 07:09:31;;;;;;;19.60;11.52;;;;;;;6.67;79.64;102338.84;4978347;28;20066;-88
2023/04/05 07:11:57;;;;;;;23.58;12.40;;;;;;;7.02;79.16;102359.13;4977930;28;20034;-88
2023/04/05 07:14:23;;;;;;;21.25;11.77;;;;;;;7.29;74.50;102356.97;4977076;28;20025;-88
2023/04/05 07:16:51;;;;;;;20.92;11.70;;;;;;;7.53;75.12;102356.41;4980198;28;20026;-88
2023/04/05 07:19:17;;;;;;;17.83;10.70;;;;;;;7.89;69.98;102354.28;4976310;28;20034;-89
2023/04/05 07:21:46;;;;;;;23.35;11.75;;;;;;;8.28;67.65;102345.22;4978147;28;20470;-89
2023/04/05 07:24:11;;;;;;;19.27;10.00;;;;;;;8.31;65.98;102343.59;4977347;28;20047;-89
2023/04/05 07:26:37;;;;;;;22.75;10.85;;;;;;;7.91;69.74;102346.56;4961193;28;20096;-89
2023/04/05 07:29:03;;;;;;;18.67;10.82;;;;;;;7.73;71.84;102344.63;4979904;28;20058;-89
2023/04/05 07:31:30;;;;;;;17.67;10.30;;;;;;;8.02;63.33;102333.78;4975357;28;21771;-89
2023/04/05 07:33:57;;;;;;;19.30;10.38;;;;;;;8.21;65.96;102340.84;4961143;28;20098;-89
2023/04/05 07:36:23;;;;;;;17.00;10.07;;;;;;;7.83;64.24;102343.91;4976760;28;20056;-89
2023/04/05 07:38:48;;;;;;;16.58;10.27;;;;;;;7.66;67.15;102334.22;4978877;28;20062;-89
2023/04/05 07:41:16;;;;;;;19.73;10.15;;;;;;;7.68;63.28;102348.88;4977158;28;20034;-89
2023/04/05 07:43:41;;;;;;;16.85;9.57;;;;;;;7.21;65.08;102337.94;4962967;28;20054;-89
2023/04/05 07:46:06;;;;;;;21.23;10.73;;;;;;;6.98;66.24;102357.34;4958795;28;20117;-89
2023/04/05 07:48:32;;;;;;;18.20;10.60;;;;;;;6.81;67.62;102333.91;4976362;28;20044;-90
2023/04/05 07:51:07;;;;;;;17.85;10.93;;;;;;;7.12;65.07;102335.22;4978367;28;20430;-89
2023/04/05 07:53:33;;;;;;;18.50;10.90;;;;;;;7.68;66.13;102348.88;4977635;28;20116;-89
2023/04/05 07:56:06;;;;;;;20.23;11.60;;;;;;;8.66;66.14;102331.00;4977526;28;20030;-90
2023/04/05 07:58:33;;;;;;;20.25;10.88;;;;;;;9.51;60.61;102330.66;4978284;28;20023;-90
2023/04/05 08:01:03;;;;;;;17.25;10.73;;;;;;;9.51;56.57;102330.66;4994090;28;20034;-89
2023/04/05 08:03:29;;;;;;;17.45;11.35;;;;;;;9.34;59.18;102340.94;4978496;28;20030;-89
2023/04/05 08:05:55;;;;;;;17.27;10.35;;;;;;;9.30;57.43;102346.06;4991685;28;20060;-90
2023/04/05 08:08:21;;;;;;;19.48;10.75;;;;;;;9.48;63.88;102320.28;4976381;28;20073;-89
2023/04/05 08:10:50;;;;;;;17.45;10.32;;;;;;;10.02;55.05;102334.28;4979258;28;20454;-90
2023/04/05 08:13:15;;;;;;;17.30;10.60;;;;;;;10.10;57.24;102327.41;4978697;28;20034;-90
2023/04/05 08:15:41;;;;;;;17.13;9.98;;;;;;;10.49;54.21;102324.88;4978835;28;20029;-89
2023/04/05 08:18:06;;;;;;;17.58;10.32;;;;;;;11.35;53.42;102343.78;4978587;28;20220;-89
2023/04/05 08:20:37;;;;;;;18.75;10.02;;;;;;;11.99;48.38;102322.78;4962037;28;20547;-93
2023/04/05 08:23:03;;;;;;;16.15;9.73;;;;;;;12.45;48.46;102318.13;4978369;28;20027;-93
2023/04/05 08:25:29;;;;;;;16.77;9.65;;;;;;;13.20;45.96;102326.13;4960586;28;20023;-92
2023/04/05 08:27:54;;;;;;;13.85;9.30;;;;;;;13.89;42.89;102324.41;4977615;28;20034;-91
2023/04/05 08:30:19;;;;;;;16.25;10.10;;;;;;;14.22;43.48;102328.28;4991198;28;20654;-91
2023/04/05 08:32:45;;;;;;;17.77;10.45;;;;;;;14.41;46.06;102331.50;4961627;28;20034;-92
2023/04/05 08:35:10;;;;;;;17.17;9.95;;;;;;;14.23;43.47;102336.09;4977832;28;20042;-89
2023/04/05 08:37:36;;;;;;;17.40;9.90;;;;;;;13.96;43.15;102328.66;4994698;28;20785;-92
2023/04/05 08:40:03;;;;;;;17.73;10.45;;;;;;;13.87;50.69;102326.16;4978045;28;20034;-92
2023/04/05 08:42:40;;;;;;;16.85;10.05;;;;;;;13.60;47.23;102318.72;4978707;28;20407;-93
2023/04/05 08:45:08;;;;;;;16.45;10.38;;;;;;;13.41;45.21;102331.97;4961812;28;20026;-93
2023/04/05 08:47:36;;;;;;;17.85;10.05;;;;;;;13.15;45.67;102323.59;4979482;28;20030;-93
2023/04/05 08:50:03;;;;;;;15.40;10.13;;;;;;;13.26;48.33;102313.03;4977718;28;20037;-92
2023/04/05 08:52:30;;;;;;;15.27;10.38;;;;;;;13.49;48.50;102313.66;4979201;28;20312;-93
2023/04/05 08:54:55;;;;;;;17.08;9.98;;;;;;;13.45;43.52;102307.59;4966767;28;20069;-93
2023/04/05 08:57:26;;;;;;;15.38;9.73;;;;;;;13.54;46.14;102330.06;4979627;28;20069;-93
2023/04/05 08:59:52;;;;;;;19.60;10.00;;;;;;;13.34;43.16;102313.81;4978001;28;20470;-91
2023/04/05 09:02:21;;;;;;;16.38;9.38;;;;;;;13.28;41.43;102324.31;4961083;28;20024;-91
2023/04/05 09:04:47;;;;;;;13.45;9.00;;;;;;;13.24;40.04;102309.59;4978189;28;20072;-92
2023/04/05 09:07:14;;;;;;;13.90;9.02;;;;;;;13.75;40.25;102315.91;4993504;28;20029;-91
2023/04/05 09:09:45;;;;;;;14.07;8.50;;;;;;;13.92;39.62;102315.72;4977479;28;20038;-92
2023/04/05 09:12:10;;;;;;;13.20;8.40;;;;;;;14.35;37.60;102322.00;4979192;28;20042;-91
2023/04/05 09:14:37;;;;;;;13.77;7.93;;;;;;;14.65;36.68;102310.25;4978258;28;20113;-92
2023/04/05 09:17:03;;;;;;;14.77;8.82;;;;;;;14.20;37.69;102315.25;4966333;28;20549;-91
2023/04/05 09:19:29;;;;;;;13.25;8.00;;;;;;;13.53;39.76;102299.69;4976758;28;20030;-92
2023/04/05 09:21:58;;;;;;;14.43;8.88;;;;;;;12.88;39.95;102321.22;4978268;28;20510;-92
2023/04/05 09:24:40;;;;;;;12.20;8.07;;;;;;;12.31;41.45;102312.16;4979855;28;20130;-92
2023/04/05 09:27:15;;;;;;;13.35;8.38;;;;;;;11.86;40.34;102322.00;4978263;28;20416;-91
2023/04/05 09:29:46;;;;;;;14.10;8.07;;;;;;;11.42;41.03;102311.75;4962033;28;20039;-92
2023/04/05 09:32:13;;;;;;;18.27;9.98;;;;;;;11.12;40.38;102301.47;4978648;28;20030;-92
2023/04/05 09:34:40;;;;;;;18.63;10.65;;;;;;;10.83;40.12;102297.22;4981032;28;20578;-91
2023/04/05 09:37:13;;;;;;;18.73;9.93;;;;;;;10.83;42.64;102319.69;4981407;28;20037;-91
2023/04/05 09:39:39;;;;;;;17.80;9.68;;;;;;;10.55;42.99;102300.69;4969508;28;20018;-91
2023/04/05 09:42:15;;;;;;;17.77;10.90;;;;;;;10.49;42.01;102300.69;4981771;28;20030;-91
2023/04/05 09:44:51;;;;;;;17.15;10.20;;;;;;;10.48;40.87;102317.09;4982422;28;20101;-92
2023/04/05 09:47:17;;;;;;;18.13;9.68;;;;;;;10.33;43.17;102310.19;4969052;28;20027;-91
2023/04/05 09:49:43;;;;;;;16.02;9.13;;;;;;;10.24;42.11;102299.78;4981396;28;20027;-91
2023/04/05 09:52:23;;;;;;;14.95;9.05;;;;;;;10.11;43.80;102296.28;4964975;28;20395;-91
2023/04/05 09:54:51;;;;;;;15.20;9.70;;;;;;;10.10;42.65;102304.91;4978861;28;20025;-91
2023/04/05 09:57:19;;;;;;;13.60;8.30;;;;;;;10.07;42.42;102293.69;4980910;28;20072;-91
2023/04/05 09:59:46;;;;;;;14.40;9.10;;;;;;;10.02;43.60;102288.53;4981846;28;20109;-91
2023/04/05 10:02:15;;;;;;;15.70;8.90;;;;;;;10.09;41.36;102299.75;4968944;28;20045;-91
2023/04/05 10:04:42;;;;;;;12.48;8.25;;;;;;;10.11;42.93;102306.66;4982226;28;20402;-91
2023/04/05 10:07:12;;;;;;;15.52;9.02;;;;;;;10.10;43.64;102285.94;4981143;28;20038;-92
2023/04/05 10:09:42;;;;;;;16.08;9.00;;;;;;;10.14;41.79;102278.16;4981532;28;20055;-91
2023/04/05 10:12:09;;;;;;;14.95;8.95;;;;;;;9.99;41.65;102270.38;4980710;28;20030;-91
2023/04/05 10:14:36;;;;;;;16.73;9.50;;;;;;;9.89;41.94;102281.59;4963158;28;20030;-91
2023/04/05 10:17:11;;;;;;;12.90;8.48;;;;;;;9.90;44.34;102286.75;4963541;28;20026;-91
2023/04/05 10:20:01;;;;;;;14.18;8.73;;;;;;;9.92;44.61;102268.63;4981676;28;20495;-91
2023/04/05 10:22:31;;;;;;;14.30;8.95;;;;;;;9.97;44.22;102259.13;4979340;28;20026;-91
2023/04/05 10:25:21;;;;;;;13.48;8.60;;;;;;;10.04;42.07;102275.53;4979893;28;20034;-91
2023/04/05 10:27:49;;;;;;;15.00;7.95;;;;;;;9.98;41.14;102266.06;4979446;28;20034;-92
2023/04/05 10:30:15;;;;;;;14.63;8.18;;;;;;;9.98;41.76;102276.41;4980570;28;20286;-91
2023/04/05 10:32:50;;;;;;;15.50;8.38;;;;;;;9.98;43.47;102276.41;4968437;28;20909;-91
2023/04/05 10:35:18;;;;;;;16.40;8.88;;;;;;;9.87;42.25;102262.59;4978121;28;20197;-91
2023/04/05 10:38:05;;;;;;;15.50;9.05;;;;;;;9.96;43.46;102275.56;4979835;28;20031;-91
2023/04/05 10:40:35;;;;;;;14.60;8.60;;;;;;;9.75;42.41;102257.38;4980685;28;20114;-91
2023/04/05 10:43:02;;;;;;;12.55;8.30;;;;;;;9.81;43.12;102266.03;4981007;28;20387;-91
2023/04/05 10:45:28;;;;;;;16.05;8.88;;;;;;;9.87;41.15;102262.59;4978941;28;20027;-91
2023/04/05 10:47:58;;;;;;;14.30;8.68;;;;;;;9.89;44.85;102247.94;4995500;28;20038;-91
2023/04/05 10:50:24;;;;;;;15.77;8.68;;;;;;;10.02;43.48;102257.44;4967947;28;20137;-91
2023/04/05 10:52:51;;;;;;;14.73;8.57;;;;;;;10.07;42.42;102255.72;4968600;28;20078;-91
2023/04/05 10:55:17;;;;;;;13.25;8.40;;;;;;;10.08;42.64;102241.03;4980174;28;20038;-91
2023/04/05 10:57:44;;;;;;;17.10;9.02;;;;;;;10.21;42.32;102254.03;4966809;28;20145;-91
2023/04/05 11:00:12;;;;;;;14.07;8.85;;;;;;;10.26;43.86;102259.19;4980922;28;20022;-90
2023/04/05 11:02:37;;;;;;;15.25;8.88;;;;;;;10.32;44.76;102250.56;4978857;28;20487;-91
2023/04/05 11:05:04;;;;;;;13.93;8.23;;;;;;;10.40;43.26;102234.16;4993902;28;20050;-91
2023/04/05 11:07:42;;;;;;;13.30;8.73;;;;;;;10.50;44.71;102233.28;4978447;28;20394;-91
2023/04/05 11:10:18;;;;;;;13.70;8.95;;;;;;;10.60;43.64;102224.63;4979666;28;20046;-91
2023/04/05 11:12:47;;;;;;;15.02;9.10;;;;;;;10.78;43.51;102243.63;4967933;28;20037;-91
2023/04/05 11:15:24;;;;;;;17.13;9.20;;;;;;;10.86;43.25;102239.25;4980714;28;20032;-91
2023/04/05 11:18:00;;;;;;;14.05;9.00;;;;;;;10.82;41.40;102237.53;4979806;28;20503;-91